This is the latest recevied weather packets stored in our database for station/object YD2UMH-10. If no packets are shown the sender has not sent any weather packets the latest 10 day(s).
| Time | Temp. | Humidity | Pressure | Rain* | Wind** | Luminosity | Snow |
|---|---|---|---|---|---|---|---|
| 1777973773 | 31.67° C | 99% | 988 hPa | - | - | 0 W/m² | - |
| 1777973451 | 31.67° C | 99% | 988 hPa | - | - | 0 W/m² | - |
| 1777973129 | 32.22° C | 99% | 988 hPa | - | - | 0 W/m² | - |
| 1777972807 | 32.22° C | 99% | 988 hPa | - | - | 0 W/m² | - |
| 1777972485 | 32.78° C | 99% | 988 hPa | - | - | 0 W/m² | - |
| 1777972163 | 33.33° C | 99% | 988 hPa | - | - | 0 W/m² | - |
| 1777971841 | 34.44° C | 99% | 988 hPa | - | - | 0 W/m² | - |
| 1777971519 | 35° C | 99% | 988 hPa | - | - | 0 W/m² | - |
| 1777971197 | 35° C | 99% | 988 hPa | - | - | 0 W/m² | - |
| 1777970875 | 35° C | 99% | 988 hPa | - | - | 0 W/m² | - |
| 1777970553 | 35° C | 99% | 988 hPa | - | - | 0 W/m² | - |
| 1777970231 | 35.56° C | 99% | 988 hPa | - | - | 0 W/m² | - |
| 1777969909 | 36.11° C | 99% | 988 hPa | - | - | 0 W/m² | - |
| 1777969587 | 35.56° C | 99% | 988 hPa | - | - | 0 W/m² | - |
| 1777969265 | 35.56° C | 99% | 988 hPa | - | - | 0 W/m² | - |
| 1777968943 | 36.67° C | 95% | 988 hPa | - | - | 0 W/m² | - |
| 1777968621 | 37.78° C | 85% | 988 hPa | - | - | 0 W/m² | - |
| 1777968299 | 36.67° C | 87% | 988 hPa | - | - | 0 W/m² | - |
| 1777967977 | 38.89° C | 85% | 988 hPa | - | - | 0 W/m² | - |
| 1777967655 | 36.11° C | 95% | 988 hPa | - | - | 0 W/m² | - |
| 1777967333 | 37.22° C | 93% | 988 hPa | - | - | 0 W/m² | - |
| 1777967011 | 36.67° C | 94% | 988 hPa | - | - | 0 W/m² | - |
| 1777966689 | 38.33° C | 85% | 988 hPa | - | - | 0 W/m² | - |
| 1777966367 | 38.33° C | 86% | 988 hPa | - | - | 0 W/m² | - |
| 1777966045 | 36.67° C | 93% | 988 hPa | - | - | 0 W/m² | - |
* Rain since midnight (hover to see other rain measurements)
** Current wind speed in m/s (hover to see current wind gust speed)